createdAt,value
2019-01-10T09:22:23.823Z,5.13
2019-01-10T09:40:52.432Z,4.80
2019-01-10T09:43:19.821Z,4.47
2019-01-10T09:45:47.289Z,4.83
2019-01-10T09:48:14.768Z,4.80
2019-01-10T09:50:42.335Z,4.10
2019-01-10T09:53:09.788Z,4.10
2019-01-10T09:55:37.298Z,3.83
2019-01-10T09:58:04.798Z,3.77
2019-01-10T10:00:32.249Z,3.20
2019-01-10T10:02:59.794Z,3.40
2019-01-10T10:05:27.264Z,4.03
2019-01-10T10:07:54.718Z,3.20
2019-01-10T10:10:22.202Z,3.20
2019-01-10T10:12:49.745Z,2.73
2019-01-10T10:15:18.349Z,2.33
2019-01-10T10:17:45.807Z,3.30
2019-01-10T10:20:14.846Z,3.43
2019-01-10T10:22:42.376Z,3.03
2019-01-10T10:25:09.835Z,2.53
2019-01-10T10:27:37.370Z,2.57
2019-01-10T10:30:06.321Z,2.97
2019-01-10T10:32:33.800Z,3.10
2019-01-10T10:35:01.256Z,3.37
2019-01-10T10:37:28.774Z,2.40
2019-01-10T10:39:56.280Z,2.67
2019-01-10T10:42:23.731Z,2.70
2019-01-10T10:44:51.261Z,3.33
2019-01-10T10:47:18.731Z,2.30
2019-01-10T10:49:46.266Z,2.03
2019-01-10T10:52:13.841Z,2.33
2019-01-10T10:54:41.317Z,1.77
2019-01-10T10:57:08.778Z,2.17
2019-01-10T10:59:36.379Z,1.77
2019-01-10T11:02:03.861Z,2.17
2019-01-10T11:04:31.408Z,2.07
2019-01-10T11:06:58.902Z,2.53
2019-01-10T11:09:26.360Z,1.57
2019-01-10T11:11:53.827Z,1.60
2019-01-10T11:14:21.327Z,1.33
2019-01-10T11:16:48.753Z,1.20
2019-01-10T11:19:16.302Z,1.33
2019-01-10T11:21:43.808Z,1.63
2019-01-10T11:24:11.377Z,2.13
2019-01-10T11:26:38.824Z,2.30
2019-01-10T11:29:06.316Z,2.00
2019-01-10T11:31:33.807Z,1.90
2019-01-10T11:34:01.281Z,2.30
2019-01-10T11:36:28.775Z,1.70
2019-01-10T11:38:56.283Z,1.80
2019-01-10T11:41:23.764Z,1.50
2019-01-10T11:43:51.229Z,1.50
2019-01-10T11:46:19.838Z,1.50
2019-01-10T11:48:47.570Z,1.20
2019-01-10T11:51:15.034Z,1.40
2019-01-10T11:53:42.498Z,1.43
2019-01-10T11:56:09.990Z,1.27
2019-01-10T11:58:37.447Z,2.23
2019-01-10T12:01:04.910Z,1.93
2019-01-10T12:03:32.311Z,1.93
2019-01-10T12:05:59.767Z,1.93
2019-01-10T12:08:27.247Z,1.80
2019-01-10T12:10:54.711Z,1.50
2019-01-10T12:13:22.187Z,1.70
2019-01-10T12:15:49.691Z,1.50
2019-01-10T12:18:17.137Z,2.03
2019-01-10T12:20:44.600Z,1.93
2019-01-10T12:23:12.068Z,1.67
2019-01-10T12:25:39.526Z,2.17
2019-01-10T12:28:07.203Z,1.60
2019-01-10T12:30:34.704Z,1.80
2019-01-10T12:33:02.151Z,1.80
2019-01-10T12:35:29.648Z,2.10
2019-01-10T12:37:57.111Z,1.70
2019-01-10T12:40:24.660Z,2.17
2019-01-10T12:42:52.148Z,2.10
2019-01-10T12:45:20.270Z,2.10
2019-01-10T12:47:47.817Z,1.97
2019-01-10T12:50:16.828Z,2.30
2019-01-10T12:52:44.354Z,2.00
2019-01-10T12:55:11.800Z,1.70
2019-01-10T12:57:39.292Z,2.00
2019-01-10T13:00:08.216Z,2.07
2019-01-10T13:02:35.700Z,1.60
2019-01-10T13:05:03.938Z,1.90
2019-01-10T13:07:31.445Z,1.80
2019-01-10T13:09:58.908Z,2.00
2019-01-10T13:12:26.364Z,1.73
2019-01-10T13:14:53.848Z,1.80
2019-01-10T13:17:21.320Z,1.93
2019-01-10T13:19:48.786Z,2.27
2019-01-10T13:22:16.288Z,1.90
2019-01-10T13:24:44.243Z,1.83
2019-01-10T13:27:11.812Z,2.03
2019-01-10T13:29:39.297Z,2.20
2019-01-10T13:32:06.763Z,2.00
2019-01-10T13:34:36.198Z,1.90
2019-01-10T13:37:03.572Z,1.63
2019-01-10T13:39:31.044Z,1.53
2019-01-10T13:41:58.573Z,2.00
2019-01-10T13:44:26.071Z,1.67
2019-01-10T13:46:55.811Z,1.93
2019-01-10T13:49:22.657Z,2.10
2019-01-10T13:51:50.135Z,1.30
2019-01-10T13:54:17.597Z,1.60
2019-01-10T13:56:45.151Z,1.63
2019-01-10T14:01:40.640Z,1.77
2019-01-10T14:04:08.100Z,2.00
2019-01-10T14:06:35.632Z,2.03
2019-01-10T14:09:04.515Z,1.47
2019-01-10T14:11:31.991Z,1.60
2019-01-10T14:13:59.499Z,1.50
2019-01-10T14:16:26.958Z,1.30
2019-01-10T14:18:54.447Z,1.60
2019-01-10T14:21:22.248Z,2.00
2019-01-10T14:23:49.765Z,1.80
2019-01-10T14:26:17.213Z,1.73
2019-01-10T14:28:44.681Z,1.57
2019-01-10T14:31:12.211Z,1.57
2019-01-10T14:33:39.679Z,1.43
2019-01-10T14:36:07.172Z,1.80
2019-01-10T14:38:34.626Z,1.67
2019-01-10T14:41:02.160Z,1.80
2019-01-10T14:43:29.645Z,1.50
2019-01-10T14:45:57.150Z,2.00
2019-01-10T14:48:24.668Z,1.70
2019-01-10T14:50:52.202Z,1.57
2019-01-10T14:53:19.704Z,2.00
2019-01-10T14:55:47.157Z,1.90
2019-01-10T14:58:14.608Z,2.40
2019-01-10T15:00:42.161Z,1.60
2019-01-10T15:03:09.608Z,2.00
2019-01-10T15:05:37.075Z,1.40
2019-01-10T15:08:04.767Z,1.90
2019-01-10T15:10:32.229Z,2.30
2019-01-10T15:12:59.694Z,1.90
2019-01-10T15:15:27.190Z,2.30
2019-01-10T15:17:54.647Z,2.00
2019-01-10T15:20:23.373Z,1.90
2019-01-10T15:22:50.884Z,2.23
2019-01-10T15:25:18.404Z,2.10
2019-01-10T15:27:45.931Z,1.97
2019-01-10T15:30:14.906Z,2.70
2019-01-10T15:32:42.415Z,2.63
2019-01-10T15:35:09.977Z,2.20
2019-01-10T15:37:37.550Z,1.93
2019-01-10T15:40:09.176Z,1.70
2019-01-10T15:42:36.708Z,1.80
2019-01-10T15:45:05.100Z,1.70
2019-01-10T15:47:32.565Z,1.60
2019-01-10T15:50:00.362Z,1.53
2019-01-10T15:52:27.868Z,1.77
2019-01-10T15:54:55.328Z,1.60
2019-01-10T15:57:22.799Z,1.67
2019-01-10T15:59:50.287Z,1.90
2019-01-10T16:02:17.740Z,1.80
2019-01-10T16:04:45.244Z,1.67
2019-01-10T16:07:12.708Z,2.10
2019-01-10T16:09:40.166Z,1.20
2019-01-10T16:12:07.648Z,1.20
2019-01-10T16:14:35.110Z,1.40
2019-01-10T16:17:02.502Z,1.60
2019-01-10T16:19:30.003Z,2.03
2019-01-10T16:21:57.458Z,1.30
2019-01-10T16:24:24.938Z,1.50
2019-01-10T16:26:52.446Z,1.80
2019-01-10T16:29:19.952Z,1.27
2019-01-10T16:31:47.423Z,1.33
2019-01-10T16:34:14.980Z,1.40
2019-01-10T16:36:42.517Z,1.23
2019-01-10T16:39:10.040Z,1.30
2019-01-10T16:41:37.520Z,1.00
2019-01-10T16:44:05.017Z,1.63
2019-01-10T16:46:32.474Z,1.30
2019-01-10T16:49:00.002Z,1.40
2019-01-10T16:51:27.492Z,1.27
2019-01-10T16:53:55.040Z,1.20
2019-01-10T16:56:22.494Z,1.10
2019-01-10T16:58:50.066Z,1.50
2019-01-10T17:01:17.611Z,1.63
2019-01-10T17:03:45.068Z,1.60
2019-01-10T17:06:12.557Z,1.67
2019-01-10T17:08:40.030Z,1.20
2019-01-10T17:11:07.563Z,1.20
2019-01-10T17:13:35.137Z,1.50
2019-01-10T17:16:02.629Z,1.70
2019-01-10T17:18:30.119Z,1.57
2019-01-10T17:20:57.642Z,2.20
2019-01-10T17:23:25.109Z,1.77
2019-01-10T17:25:52.638Z,1.57
2019-01-10T17:28:20.138Z,2.00
2019-01-10T17:30:47.637Z,1.70
2019-01-10T17:33:15.107Z,1.33
2019-01-10T17:35:42.653Z,1.50
2019-01-10T17:38:10.155Z,1.67
2019-01-10T17:40:37.640Z,1.87
2019-01-10T17:43:06.085Z,1.57
2019-01-10T17:45:33.976Z,1.60
2019-01-10T17:48:01.539Z,1.83
2019-01-10T17:50:29.211Z,1.80
2019-01-10T17:52:56.744Z,1.90
2019-01-10T17:55:24.221Z,1.73
2019-01-10T17:57:51.746Z,2.43
2019-01-10T18:00:23.390Z,2.00
2019-01-10T18:02:50.862Z,1.70
2019-01-10T18:05:18.373Z,1.80
2019-01-10T18:07:45.979Z,1.53
2019-01-10T18:10:14.729Z,2.10
2019-01-10T18:12:42.275Z,1.90
2019-01-10T18:15:11.163Z,1.70
2019-01-10T18:17:38.653Z,1.87
2019-01-10T18:20:10.664Z,2.30
2019-01-10T18:22:38.265Z,2.10
2019-01-10T18:25:07.212Z,2.40
2019-01-10T18:27:34.701Z,2.30
2019-01-10T18:30:02.278Z,2.20
2019-01-10T18:32:29.809Z,2.50
2019-01-10T18:34:57.602Z,2.63
2019-01-10T18:37:25.082Z,2.60
2019-01-10T18:39:52.637Z,2.60
2019-01-10T18:42:20.104Z,2.10
2019-01-10T18:44:47.607Z,2.30
2019-01-10T18:47:15.151Z,2.50
2019-01-10T18:49:43.988Z,2.37
2019-01-10T18:52:11.569Z,2.00
2019-01-10T18:54:39.121Z,1.83
2019-01-10T18:57:06.646Z,2.20
2019-01-10T18:59:34.139Z,2.13
2019-01-10T19:02:01.693Z,2.20
2019-01-10T19:04:29.178Z,2.10
2019-01-10T19:06:56.706Z,2.60
2019-01-10T19:09:24.242Z,2.40
2019-01-10T19:11:51.813Z,2.67
2019-01-10T19:14:19.283Z,1.93
2019-01-10T19:16:46.739Z,2.13
2019-01-10T19:19:14.296Z,2.20
2019-01-10T19:21:41.874Z,2.20
2019-01-10T19:24:09.348Z,2.40
2019-01-10T19:26:36.916Z,2.67
2019-01-10T19:29:04.568Z,2.03
2019-01-10T19:31:33.484Z,2.30
2019-01-10T19:34:01.084Z,2.17
2019-01-10T19:36:28.588Z,2.37
2019-01-10T19:38:56.039Z,2.17
2019-01-10T19:41:23.523Z,2.60
2019-01-10T19:43:51.098Z,2.43
2019-01-10T19:46:18.547Z,1.90
2019-01-10T19:48:46.069Z,1.93
2019-01-10T19:51:13.529Z,2.70
2019-01-10T19:53:41.074Z,2.43
2019-01-10T19:56:08.686Z,2.43
2019-01-10T19:58:36.180Z,2.00
2019-01-10T20:01:04.069Z,2.13
2019-01-10T20:03:31.547Z,2.13
2019-01-10T20:05:59.046Z,2.13
2019-01-10T20:08:26.523Z,1.87
2019-01-10T20:10:54.071Z,1.50
2019-01-10T20:13:22.047Z,2.27
2019-01-10T20:15:49.985Z,1.83
2019-01-10T20:18:17.540Z,2.03
2019-01-10T20:20:45.103Z,2.10
2019-01-10T20:23:12.643Z,1.77
2019-01-10T20:25:40.711Z,2.20
2019-01-10T20:28:08.251Z,1.70
2019-01-10T20:30:35.711Z,2.13
2019-01-10T20:33:03.322Z,2.30
2019-01-10T20:35:31.596Z,1.83
2019-01-10T20:37:59.194Z,2.10
2019-01-10T20:40:26.715Z,1.83
2019-01-10T20:42:54.213Z,1.80
2019-01-10T20:45:21.688Z,1.87
2019-01-10T20:47:49.626Z,1.60
2019-01-10T20:50:18.308Z,2.47
2019-01-10T20:52:45.798Z,2.40
2019-01-10T20:55:14.700Z,2.20
2019-01-10T20:57:42.247Z,2.00
2019-01-10T21:00:11.244Z,1.97
2019-01-10T21:02:38.773Z,1.80
2019-01-10T21:05:07.000Z,2.60
2019-01-10T21:07:34.506Z,2.40
2019-01-10T21:10:02.267Z,1.83
2019-01-10T21:12:29.811Z,2.20
2019-01-10T21:14:57.377Z,2.27
2019-01-10T21:17:24.865Z,2.00
2019-01-10T21:19:52.369Z,2.27
2019-01-10T21:22:19.890Z,2.60
2019-01-10T21:24:47.457Z,1.90
2019-01-10T21:27:14.966Z,2.40
2019-01-10T21:29:42.463Z,2.77
2019-01-10T21:32:10.019Z,1.97
2019-01-10T21:34:37.537Z,2.33
2019-01-10T21:37:05.077Z,2.30
2019-01-10T21:39:32.553Z,2.40
2019-01-10T21:42:01.337Z,2.20
2019-01-10T21:44:29.199Z,2.40
2019-01-10T21:46:56.753Z,2.00
2019-01-10T21:49:24.206Z,2.47
2019-01-10T21:51:51.729Z,3.90
2019-01-10T21:54:19.286Z,2.73
2019-01-10T21:56:46.823Z,2.13
2019-01-10T21:59:14.296Z,2.03
2019-01-10T22:01:41.902Z,2.07
2019-01-10T22:04:09.382Z,2.37
2019-01-10T22:06:36.934Z,2.40
2019-01-10T22:09:06.267Z,2.07
2019-01-10T22:11:33.805Z,2.33
2019-01-10T22:14:01.271Z,2.20
2019-01-10T22:16:28.904Z,1.90
2019-01-10T22:18:56.469Z,2.00
2019-01-10T22:21:23.936Z,2.10
2019-01-10T22:23:51.566Z,2.07
2019-01-10T22:26:19.034Z,2.20
2019-01-10T22:28:46.588Z,1.70
2019-01-10T22:31:14.151Z,2.20
2019-01-10T22:33:41.747Z,2.50
2019-01-10T22:36:09.234Z,2.30
2019-01-10T22:38:36.707Z,1.87
2019-01-10T22:41:04.185Z,1.93
2019-01-10T22:43:31.716Z,1.80
2019-01-10T22:45:59.284Z,2.57
2019-01-10T22:48:28.298Z,2.50
2019-01-10T22:50:55.815Z,2.20
2019-01-10T22:53:23.319Z,2.12
2019-01-10T22:55:52.259Z,2.80
2019-01-10T22:58:19.739Z,2.73
2019-01-10T23:00:59.338Z,2.60
2019-01-10T23:03:27.651Z,2.70
2019-01-10T23:05:55.128Z,2.63
2019-01-10T23:08:22.647Z,2.72
2019-01-10T23:10:51.909Z,1.90
2019-01-10T23:13:19.544Z,2.47
2019-01-10T23:15:47.044Z,2.40
2019-01-10T23:18:14.521Z,2.30
2019-01-10T23:20:42.430Z,2.57
2019-01-10T23:23:11.026Z,2.23
2019-01-10T23:25:38.554Z,1.70
2019-01-10T23:28:06.081Z,2.30
2019-01-10T23:30:46.880Z,2.30
2019-01-10T23:33:14.946Z,2.70
2019-01-10T23:35:42.434Z,2.00
2019-01-10T23:38:10.003Z,3.03
2019-01-10T23:40:37.467Z,2.00
2019-01-10T23:43:05.085Z,1.95
2019-01-10T23:45:32.638Z,2.33
2019-01-10T23:48:00.263Z,2.33
2019-01-10T23:50:27.698Z,1.80
2019-01-10T23:52:55.170Z,1.77
2019-01-10T23:55:22.745Z,2.00
2019-01-10T23:57:50.282Z,2.50
